<?xml version="1.0" encoding="UTF-8" standalone="no" ?>
<gpx xmlns="http://www.topografix.com/GPX/1/1" xmlns:xsi="http://www.w3.org/2001/XMLSchema-instance" xsi:schemaLocation="http://www.topografix.com/GPX/1/1 http://www.topografix.com/GPX/1/1/gpx.xsd" version="1.1" creator="VisuGPX - https://www.visugpx.com">
  <metadata>
    <name>Tournavaux</name>
  </metadata>
  <trk>
    <name><![CDATA[SityTrail - Blossette 2019]]></name>
    <trkseg>
      <trkpt lat="49.87671" lon="4.79145">
        <ele>212</ele>
        <time>2019-06-25T06:46:18.337Z</time>
      </trkpt>
      <trkpt lat="49.87671" lon="4.79145">
        <ele>212</ele>
        <time>2019-06-25T06:47:42.334Z</time>
      </trkpt>
      <trkpt lat="49.87671" lon="4.79145">
        <ele>212</ele>
        <time>2019-06-25T06:47:47.334Z</time>
      </trkpt>
      <trkpt lat="49.87671" lon="4.79145">
        <ele>212</ele>
        <time>2019-06-25T06:47:52.334Z</time>
      </trkpt>
      <trkpt lat="49.87671" lon="4.79145">
        <ele>212</ele>
        <time>2019-06-25T06:47:56.336Z</time>
      </trkpt>
      <trkpt lat="49.87719" lon="4.79184">
        <ele>216</ele>
        <time>2019-06-25T06:48:01.332Z</time>
      </trkpt>
      <trkpt lat="49.87764" lon="4.792">
        <ele>219</ele>
        <time>2019-06-25T06:48:14.335Z</time>
      </trkpt>
      <trkpt lat="49.87806" lon="4.79181">
        <ele>219</ele>
        <time>2019-06-25T06:48:19.336Z</time>
      </trkpt>
      <trkpt lat="49.8784" lon="4.79162">
        <ele>222</ele>
        <time>2019-06-25T06:48:23.334Z</time>
      </trkpt>
      <trkpt lat="49.87875" lon="4.79151">
        <ele>224</ele>
        <time>2019-06-25T06:48:28.336Z</time>
      </trkpt>
      <trkpt lat="49.87893" lon="4.79143">
        <ele>221</ele>
        <time>2019-06-25T06:48:45.332Z</time>
      </trkpt>
      <trkpt lat="49.87912" lon="4.79147">
        <ele>218</ele>
        <time>2019-06-25T06:50:17.335Z</time>
      </trkpt>
      <trkpt lat="49.87946" lon="4.79179">
        <ele>216</ele>
        <time>2019-06-25T06:50:22.335Z</time>
      </trkpt>
      <trkpt lat="49.87983" lon="4.79216">
        <ele>215</ele>
        <time>2019-06-25T06:50:27.334Z</time>
      </trkpt>
      <trkpt lat="49.88017" lon="4.79255">
        <ele>221</ele>
        <time>2019-06-25T06:50:31.331Z</time>
      </trkpt>
      <trkpt lat="49.88088" lon="4.79369">
        <ele>222</ele>
        <time>2019-06-25T06:50:36.330Z</time>
      </trkpt>
      <trkpt lat="49.88121" lon="4.79419">
        <ele>226</ele>
        <time>2019-06-25T06:50:40.334Z</time>
      </trkpt>
      <trkpt lat="49.88142" lon="4.79462">
        <ele>230</ele>
        <time>2019-06-25T06:50:45.329Z</time>
      </trkpt>
      <trkpt lat="49.88142" lon="4.79462">
        <ele>230</ele>
        <time>2019-06-25T06:50:49.329Z</time>
      </trkpt>
      <trkpt lat="49.88142" lon="4.79462">
        <ele>230</ele>
        <time>2019-06-25T06:50:54.327Z</time>
      </trkpt>
      <trkpt lat="49.88175" lon="4.79503">
        <ele>228</ele>
        <time>2019-06-25T06:51:40.336Z</time>
      </trkpt>
      <trkpt lat="49.88179" lon="4.79514">
        <ele>228</ele>
        <time>2019-06-25T06:51:45.329Z</time>
      </trkpt>
      <trkpt lat="49.88185" lon="4.79519">
        <ele>228</ele>
        <time>2019-06-25T06:51:51.332Z</time>
      </trkpt>
      <trkpt lat="49.88194" lon="4.79562">
        <ele>229</ele>
        <time>2019-06-25T06:51:56.333Z</time>
      </trkpt>
      <trkpt lat="49.88186" lon="4.79605">
        <ele>229</ele>
        <time>2019-06-25T06:52:01.334Z</time>
      </trkpt>
      <trkpt lat="49.88156" lon="4.79658">
        <ele>228</ele>
        <time>2019-06-25T06:54:02.331Z</time>
      </trkpt>
      <trkpt lat="49.88139" lon="4.79687">
        <ele>229</ele>
        <time>2019-06-25T06:54:25.332Z</time>
      </trkpt>
      <trkpt lat="49.88131" lon="4.79712">
        <ele>225</ele>
        <time>2019-06-25T06:54:30.332Z</time>
      </trkpt>
      <trkpt lat="49.88118" lon="4.79727">
        <ele>230</ele>
        <time>2019-06-25T06:54:34.331Z</time>
      </trkpt>
      <trkpt lat="49.8811" lon="4.79748">
        <ele>226</ele>
        <time>2019-06-25T06:54:39.333Z</time>
      </trkpt>
      <trkpt lat="49.88097" lon="4.79777">
        <ele>229</ele>
        <time>2019-06-25T06:55:04.332Z</time>
      </trkpt>
      <trkpt lat="49.88093" lon="4.79808">
        <ele>226</ele>
        <time>2019-06-25T06:55:09.331Z</time>
      </trkpt>
      <trkpt lat="49.88149" lon="4.79812">
        <ele>221</ele>
        <time>2019-06-25T06:55:14.332Z</time>
      </trkpt>
      <trkpt lat="49.88192" lon="4.79819">
        <ele>221</ele>
        <time>2019-06-25T06:55:19.336Z</time>
      </trkpt>
      <trkpt lat="49.88215" lon="4.79834">
        <ele>223</ele>
        <time>2019-06-25T06:55:24.335Z</time>
      </trkpt>
      <trkpt lat="49.88218" lon="4.79855">
        <ele>224</ele>
        <time>2019-06-25T06:55:39.333Z</time>
      </trkpt>
      <trkpt lat="49.88219" lon="4.79857">
        <ele>224</ele>
        <time>2019-06-25T06:55:44.332Z</time>
      </trkpt>
      <trkpt lat="49.88242" lon="4.79921">
        <ele>227</ele>
        <time>2019-06-25T06:55:49.338Z</time>
      </trkpt>
      <trkpt lat="49.88265" lon="4.79958">
        <ele>232</ele>
        <time>2019-06-25T06:55:54.333Z</time>
      </trkpt>
      <trkpt lat="49.88305" lon="4.80009">
        <ele>235</ele>
        <time>2019-06-25T06:55:59.341Z</time>
      </trkpt>
      <trkpt lat="49.88318" lon="4.80028">
        <ele>235</ele>
        <time>2019-06-25T06:56:04.331Z</time>
      </trkpt>
      <trkpt lat="49.88318" lon="4.80028">
        <ele>235</ele>
        <time>2019-06-25T06:56:09.336Z</time>
      </trkpt>
      <trkpt lat="49.88341" lon="4.8005">
        <ele>236</ele>
        <time>2019-06-25T06:56:14.333Z</time>
      </trkpt>
      <trkpt lat="49.88363" lon="4.80068">
        <ele>236</ele>
        <time>2019-06-25T06:56:19.332Z</time>
      </trkpt>
      <trkpt lat="49.88385" lon="4.80107">
        <ele>233</ele>
        <time>2019-06-25T06:56:23.333Z</time>
      </trkpt>
      <trkpt lat="49.88392" lon="4.80128">
        <ele>230</ele>
        <time>2019-06-25T06:56:28.339Z</time>
      </trkpt>
      <trkpt lat="49.88404" lon="4.80136">
        <ele>228</ele>
        <time>2019-06-25T06:56:33.333Z</time>
      </trkpt>
      <trkpt lat="49.88463" lon="4.80163">
        <ele>224</ele>
        <time>2019-06-25T06:56:38.335Z</time>
      </trkpt>
      <trkpt lat="49.88505" lon="4.8019">
        <ele>219</ele>
        <time>2019-06-25T06:57:05.332Z</time>
      </trkpt>
      <trkpt lat="49.88529" lon="4.80217">
        <ele>213</ele>
        <time>2019-06-25T06:57:10.332Z</time>
      </trkpt>
      <trkpt lat="49.8859" lon="4.80276">
        <ele>200</ele>
        <time>2019-06-25T06:57:15.335Z</time>
      </trkpt>
      <trkpt lat="49.88635" lon="4.80303">
        <ele>196</ele>
        <time>2019-06-25T06:57:20.335Z</time>
      </trkpt>
      <trkpt lat="49.88641" lon="4.803">
        <ele>196</ele>
        <time>2019-06-25T06:57:25.331Z</time>
      </trkpt>
      <trkpt lat="49.8869" lon="4.80319">
        <ele>193</ele>
        <time>2019-06-25T06:57:30.335Z</time>
      </trkpt>
      <trkpt lat="49.88697" lon="4.80326">
        <ele>185</ele>
        <time>2019-06-25T06:57:34.335Z</time>
      </trkpt>
      <trkpt lat="49.88729" lon="4.80342">
        <ele>188</ele>
        <time>2019-06-25T06:57:39.334Z</time>
      </trkpt>
      <trkpt lat="49.88771" lon="4.80362">
        <ele>181</ele>
        <time>2019-06-25T06:57:44.336Z</time>
      </trkpt>
      <trkpt lat="49.88771" lon="4.80365">
        <ele>181</ele>
        <time>2019-06-25T06:57:49.349Z</time>
      </trkpt>
      <trkpt lat="49.88772" lon="4.80366">
        <ele>181</ele>
        <time>2019-06-25T06:57:54.329Z</time>
      </trkpt>
      <trkpt lat="49.88811" lon="4.80369">
        <ele>179</ele>
        <time>2019-06-25T06:57:58.331Z</time>
      </trkpt>
      <trkpt lat="49.88843" lon="4.80341">
        <ele>179</ele>
        <time>2019-06-25T06:58:03.335Z</time>
      </trkpt>
      <trkpt lat="49.88897" lon="4.80192">
        <ele>191</ele>
        <time>2019-06-25T06:58:08.333Z</time>
      </trkpt>
      <trkpt lat="49.88951" lon="4.80103">
        <ele>195</ele>
        <time>2019-06-25T06:58:13.333Z</time>
      </trkpt>
      <trkpt lat="49.88978" lon="4.80049">
        <ele>204</ele>
        <time>2019-06-25T06:58:17.333Z</time>
      </trkpt>
      <trkpt lat="49.89065" lon="4.79973">
        <ele>213</ele>
        <time>2019-06-25T06:58:22.331Z</time>
      </trkpt>
      <trkpt lat="49.8913" lon="4.7997">
        <ele>224</ele>
        <time>2019-06-25T06:58:27.330Z</time>
      </trkpt>
      <trkpt lat="49.89159" lon="4.80017">
        <ele>228</ele>
        <time>2019-06-25T06:58:32.333Z</time>
      </trkpt>
      <trkpt lat="49.89159" lon="4.80013">
        <ele>232</ele>
        <time>2019-06-25T06:58:37.332Z</time>
      </trkpt>
      <trkpt lat="49.89182" lon="4.80081">
        <ele>228</ele>
        <time>2019-06-25T06:58:42.338Z</time>
      </trkpt>
      <trkpt lat="49.89186" lon="4.80075">
        <ele>228</ele>
        <time>2019-06-25T06:58:47.335Z</time>
      </trkpt>
      <trkpt lat="49.89182" lon="4.80081">
        <ele>228</ele>
        <time>2019-06-25T06:58:52.330Z</time>
      </trkpt>
      <trkpt lat="49.89182" lon="4.80081">
        <ele>228</ele>
        <time>2019-06-25T06:58:57.333Z</time>
      </trkpt>
      <trkpt lat="49.89185" lon="4.80083">
        <ele>228</ele>
        <time>2019-06-25T06:59:02.331Z</time>
      </trkpt>
      <trkpt lat="49.8924" lon="4.80123">
        <ele>239</ele>
        <time>2019-06-25T06:59:36.336Z</time>
      </trkpt>
      <trkpt lat="49.89264" lon="4.80137">
        <ele>236</ele>
        <time>2019-06-25T06:59:41.333Z</time>
      </trkpt>
      <trkpt lat="49.89278" lon="4.8014">
        <ele>241</ele>
        <time>2019-06-25T06:59:46.334Z</time>
      </trkpt>
      <trkpt lat="49.89404" lon="4.80095">
        <ele>267</ele>
        <time>2019-06-25T06:59:51.333Z</time>
      </trkpt>
      <trkpt lat="49.89514" lon="4.79991">
        <ele>285</ele>
        <time>2019-06-25T06:59:56.341Z</time>
      </trkpt>
      <trkpt lat="49.89569" lon="4.79924">
        <ele>306</ele>
        <time>2019-06-25T07:00:01.331Z</time>
      </trkpt>
      <trkpt lat="49.89704" lon="4.79783">
        <ele>328</ele>
        <time>2019-06-25T07:00:06.332Z</time>
      </trkpt>
      <trkpt lat="49.89776" lon="4.79749">
        <ele>337</ele>
        <time>2019-06-25T07:00:11.331Z</time>
      </trkpt>
      <trkpt lat="49.89803" lon="4.79734">
        <ele>340</ele>
        <time>2019-06-25T07:00:16.335Z</time>
      </trkpt>
      <trkpt lat="49.89864" lon="4.79696">
        <ele>347</ele>
        <time>2019-06-25T07:00:20.331Z</time>
      </trkpt>
      <trkpt lat="49.89935" lon="4.79637">
        <ele>358</ele>
        <time>2019-06-25T07:00:25.333Z</time>
      </trkpt>
      <trkpt lat="49.89935" lon="4.79635">
        <ele>358</ele>
        <time>2019-06-25T07:00:29.331Z</time>
      </trkpt>
      <trkpt lat="49.89938" lon="4.79635">
        <ele>358</ele>
        <time>2019-06-25T07:00:34.333Z</time>
      </trkpt>
      <trkpt lat="49.89971" lon="4.79571">
        <ele>363</ele>
        <time>2019-06-25T07:00:39.329Z</time>
      </trkpt>
      <trkpt lat="49.90086" lon="4.79397">
        <ele>381</ele>
        <time>2019-06-25T07:00:44.333Z</time>
      </trkpt>
      <trkpt lat="49.90135" lon="4.79355">
        <ele>391</ele>
        <time>2019-06-25T07:00:49.331Z</time>
      </trkpt>
      <trkpt lat="49.90181" lon="4.79319">
        <ele>394</ele>
        <time>2019-06-25T07:00:54.331Z</time>
      </trkpt>
      <trkpt lat="49.90181" lon="4.79319">
        <ele>394</ele>
        <time>2019-06-25T07:00:59.330Z</time>
      </trkpt>
      <trkpt lat="49.90199" lon="4.7929">
        <ele>393</ele>
        <time>2019-06-25T07:01:04.334Z</time>
      </trkpt>
      <trkpt lat="49.90203" lon="4.79251">
        <ele>393</ele>
        <time>2019-06-25T07:01:09.332Z</time>
      </trkpt>
      <trkpt lat="49.90202" lon="4.79201">
        <ele>392</ele>
        <time>2019-06-25T07:01:14.332Z</time>
      </trkpt>
      <trkpt lat="49.90193" lon="4.79163">
        <ele>391</ele>
        <time>2019-06-25T07:01:18.337Z</time>
      </trkpt>
      <trkpt lat="49.90168" lon="4.79155">
        <ele>392</ele>
        <time>2019-06-25T07:01:23.332Z</time>
      </trkpt>
      <trkpt lat="49.90142" lon="4.79151">
        <ele>396</ele>
        <time>2019-06-25T07:01:28.334Z</time>
      </trkpt>
      <trkpt lat="49.90167" lon="4.79104">
        <ele>394</ele>
        <time>2019-06-25T07:01:33.331Z</time>
      </trkpt>
      <trkpt lat="49.90162" lon="4.79082">
        <ele>398</ele>
        <time>2019-06-25T07:01:38.334Z</time>
      </trkpt>
      <trkpt lat="49.90162" lon="4.79083">
        <ele>398</ele>
        <time>2019-06-25T07:01:43.333Z</time>
      </trkpt>
      <trkpt lat="49.90129" lon="4.79036">
        <ele>407</ele>
        <time>2019-06-25T07:01:47.332Z</time>
      </trkpt>
      <trkpt lat="49.90095" lon="4.7898">
        <ele>415</ele>
        <time>2019-06-25T07:01:51.334Z</time>
      </trkpt>
      <trkpt lat="49.9002" lon="4.78896">
        <ele>425</ele>
        <time>2019-06-25T07:01:56.336Z</time>
      </trkpt>
      <trkpt lat="49.89975" lon="4.78828">
        <ele>424</ele>
        <time>2019-06-25T07:02:01.331Z</time>
      </trkpt>
      <trkpt lat="49.89932" lon="4.78778">
        <ele>425</ele>
        <time>2019-06-25T07:02:06.331Z</time>
      </trkpt>
      <trkpt lat="49.89919" lon="4.78746">
        <ele>422</ele>
        <time>2019-06-25T07:02:11.329Z</time>
      </trkpt>
      <trkpt lat="49.89912" lon="4.78742">
        <ele>422</ele>
        <time>2019-06-25T07:02:15.335Z</time>
      </trkpt>
      <trkpt lat="49.89908" lon="4.78731">
        <ele>423</ele>
        <time>2019-06-25T07:02:20.335Z</time>
      </trkpt>
      <trkpt lat="49.89909" lon="4.78734">
        <ele>423</ele>
        <time>2019-06-25T07:02:25.332Z</time>
      </trkpt>
      <trkpt lat="49.89876" lon="4.78712">
        <ele>421</ele>
        <time>2019-06-25T07:02:30.329Z</time>
      </trkpt>
      <trkpt lat="49.89826" lon="4.78649">
        <ele>422</ele>
        <time>2019-06-25T07:02:35.335Z</time>
      </trkpt>
      <trkpt lat="49.89725" lon="4.78589">
        <ele>415</ele>
        <time>2019-06-25T07:03:14.330Z</time>
      </trkpt>
      <trkpt lat="49.89647" lon="4.78507">
        <ele>409</ele>
        <time>2019-06-25T07:03:18.333Z</time>
      </trkpt>
      <trkpt lat="49.89636" lon="4.78486">
        <ele>413</ele>
        <time>2019-06-25T07:03:23.330Z</time>
      </trkpt>
      <trkpt lat="49.89635" lon="4.78483">
        <ele>413</ele>
        <time>2019-06-25T07:03:28.335Z</time>
      </trkpt>
      <trkpt lat="49.89635" lon="4.78474">
        <ele>413</ele>
        <time>2019-06-25T07:03:33.332Z</time>
      </trkpt>
      <trkpt lat="49.89635" lon="4.78472">
        <ele>413</ele>
        <time>2019-06-25T07:04:13.330Z</time>
      </trkpt>
      <trkpt lat="49.89634" lon="4.7847">
        <ele>413</ele>
        <time>2019-06-25T07:04:18.332Z</time>
      </trkpt>
      <trkpt lat="49.89633" lon="4.78465">
        <ele>413</ele>
        <time>2019-06-25T07:04:22.332Z</time>
      </trkpt>
      <trkpt lat="49.89633" lon="4.78465">
        <ele>413</ele>
        <time>2019-06-25T07:04:27.330Z</time>
      </trkpt>
      <trkpt lat="49.89633" lon="4.78465">
        <ele>413</ele>
        <time>2019-06-25T07:04:32.329Z</time>
      </trkpt>
      <trkpt lat="49.89633" lon="4.78465">
        <ele>413</ele>
        <time>2019-06-25T07:04:36.332Z</time>
      </trkpt>
      <trkpt lat="49.89592" lon="4.7842">
        <ele>414</ele>
        <time>2019-06-25T07:04:41.332Z</time>
      </trkpt>
      <trkpt lat="49.8955" lon="4.78335">
        <ele>419</ele>
        <time>2019-06-25T07:04:46.332Z</time>
      </trkpt>
      <trkpt lat="49.89525" lon="4.78238">
        <ele>421</ele>
        <time>2019-06-25T07:04:50.331Z</time>
      </trkpt>
      <trkpt lat="49.89474" lon="4.78054">
        <ele>415</ele>
        <time>2019-06-25T07:04:55.330Z</time>
      </trkpt>
      <trkpt lat="49.89456" lon="4.7799">
        <ele>409</ele>
        <time>2019-06-25T07:05:00.329Z</time>
      </trkpt>
      <trkpt lat="49.89443" lon="4.77896">
        <ele>403</ele>
        <time>2019-06-25T07:05:05.331Z</time>
      </trkpt>
      <trkpt lat="49.89436" lon="4.7783">
        <ele>399</ele>
        <time>2019-06-25T07:05:09.327Z</time>
      </trkpt>
      <trkpt lat="49.89397" lon="4.7768">
        <ele>386</ele>
        <time>2019-06-25T07:05:14.330Z</time>
      </trkpt>
      <trkpt lat="49.89304" lon="4.77459">
        <ele>367</ele>
        <time>2019-06-25T07:05:19.331Z</time>
      </trkpt>
      <trkpt lat="49.8938" lon="4.77449">
        <ele>365</ele>
        <time>2019-06-25T07:05:24.329Z</time>
      </trkpt>
      <trkpt lat="49.89415" lon="4.77429">
        <ele>363</ele>
        <time>2019-06-25T07:05:29.337Z</time>
      </trkpt>
      <trkpt lat="49.8943" lon="4.77332">
        <ele>350</ele>
        <time>2019-06-25T07:05:33.332Z</time>
      </trkpt>
      <trkpt lat="49.89477" lon="4.77299">
        <ele>349</ele>
        <time>2019-06-25T07:05:38.329Z</time>
      </trkpt>
      <trkpt lat="49.89536" lon="4.77244">
        <ele>341</ele>
        <time>2019-06-25T07:05:42.330Z</time>
      </trkpt>
      <trkpt lat="49.89548" lon="4.77152">
        <ele>327</ele>
        <time>2019-06-25T07:05:47.330Z</time>
      </trkpt>
      <trkpt lat="49.89547" lon="4.77107">
        <ele>324</ele>
        <time>2019-06-25T07:05:51.336Z</time>
      </trkpt>
      <trkpt lat="49.89547" lon="4.77105">
        <ele>324</ele>
        <time>2019-06-25T07:05:56.331Z</time>
      </trkpt>
      <trkpt lat="49.89548" lon="4.77103">
        <ele>324</ele>
        <time>2019-06-25T07:06:00.333Z</time>
      </trkpt>
      <trkpt lat="49.8953" lon="4.771">
        <ele>321</ele>
        <time>2019-06-25T07:06:05.332Z</time>
      </trkpt>
      <trkpt lat="49.8953" lon="4.77099">
        <ele>321</ele>
        <time>2019-06-25T07:06:10.333Z</time>
      </trkpt>
      <trkpt lat="49.8953" lon="4.77099">
        <ele>321</ele>
        <time>2019-06-25T07:06:15.330Z</time>
      </trkpt>
      <trkpt lat="49.89517" lon="4.76961">
        <ele>334</ele>
        <time>2019-06-25T07:06:19.331Z</time>
      </trkpt>
      <trkpt lat="49.89488" lon="4.76867">
        <ele>323</ele>
        <time>2019-06-25T07:06:24.332Z</time>
      </trkpt>
      <trkpt lat="49.89475" lon="4.76754">
        <ele>316</ele>
        <time>2019-06-25T07:06:28.329Z</time>
      </trkpt>
      <trkpt lat="49.89446" lon="4.76693">
        <ele>308</ele>
        <time>2019-06-25T07:06:33.331Z</time>
      </trkpt>
      <trkpt lat="49.89421" lon="4.76627">
        <ele>303</ele>
        <time>2019-06-25T07:06:37.332Z</time>
      </trkpt>
      <trkpt lat="49.89413" lon="4.76562">
        <ele>309</ele>
        <time>2019-06-25T07:06:42.332Z</time>
      </trkpt>
      <trkpt lat="49.89412" lon="4.76561">
        <ele>309</ele>
        <time>2019-06-25T07:06:47.331Z</time>
      </trkpt>
      <trkpt lat="49.89412" lon="4.76561">
        <ele>309</ele>
        <time>2019-06-25T07:06:52.332Z</time>
      </trkpt>
      <trkpt lat="49.89408" lon="4.76558">
        <ele>309</ele>
        <time>2019-06-25T07:06:57.331Z</time>
      </trkpt>
      <trkpt lat="49.89408" lon="4.76557">
        <ele>309</ele>
        <time>2019-06-25T07:07:02.333Z</time>
      </trkpt>
      <trkpt lat="49.89408" lon="4.76556">
        <ele>309</ele>
        <time>2019-06-25T07:07:16.331Z</time>
      </trkpt>
      <trkpt lat="49.89408" lon="4.76556">
        <ele>309</ele>
        <time>2019-06-25T07:07:21.333Z</time>
      </trkpt>
      <trkpt lat="49.89407" lon="4.76556">
        <ele>309</ele>
        <time>2019-06-25T07:07:26.329Z</time>
      </trkpt>
      <trkpt lat="49.89384" lon="4.76528">
        <ele>301</ele>
        <time>2019-06-25T07:07:30.331Z</time>
      </trkpt>
      <trkpt lat="49.89367" lon="4.76488">
        <ele>296</ele>
        <time>2019-06-25T07:07:34.332Z</time>
      </trkpt>
      <trkpt lat="49.89354" lon="4.76479">
        <ele>297</ele>
        <time>2019-06-25T07:07:39.334Z</time>
      </trkpt>
      <trkpt lat="49.89349" lon="4.76456">
        <ele>297</ele>
        <time>2019-06-25T07:07:44.334Z</time>
      </trkpt>
      <trkpt lat="49.89337" lon="4.76439">
        <ele>290</ele>
        <time>2019-06-25T07:07:48.334Z</time>
      </trkpt>
      <trkpt lat="49.89331" lon="4.76403">
        <ele>292</ele>
        <time>2019-06-25T07:07:53.329Z</time>
      </trkpt>
      <trkpt lat="49.89319" lon="4.764">
        <ele>287</ele>
        <time>2019-06-25T07:07:57.332Z</time>
      </trkpt>
      <trkpt lat="49.89305" lon="4.76351">
        <ele>290</ele>
        <time>2019-06-25T07:08:02.333Z</time>
      </trkpt>
      <trkpt lat="49.89295" lon="4.76346">
        <ele>292</ele>
        <time>2019-06-25T07:08:07.331Z</time>
      </trkpt>
      <trkpt lat="49.89289" lon="4.76332">
        <ele>282</ele>
        <time>2019-06-25T07:08:11.331Z</time>
      </trkpt>
      <trkpt lat="49.89288" lon="4.76335">
        <ele>282</ele>
        <time>2019-06-25T07:08:16.330Z</time>
      </trkpt>
      <trkpt lat="49.89288" lon="4.7633">
        <ele>282</ele>
        <time>2019-06-25T07:08:20.332Z</time>
      </trkpt>
      <trkpt lat="49.89289" lon="4.7632">
        <ele>282</ele>
        <time>2019-06-25T07:08:25.330Z</time>
      </trkpt>
      <trkpt lat="49.89283" lon="4.76309">
        <ele>284</ele>
        <time>2019-06-25T07:08:30.333Z</time>
      </trkpt>
      <trkpt lat="49.8927" lon="4.76303">
        <ele>284</ele>
        <time>2019-06-25T07:08:35.331Z</time>
      </trkpt>
      <trkpt lat="49.89264" lon="4.7627">
        <ele>285</ele>
        <time>2019-06-25T07:08:40.331Z</time>
      </trkpt>
      <trkpt lat="49.8926" lon="4.76243">
        <ele>278</ele>
        <time>2019-06-25T07:08:45.330Z</time>
      </trkpt>
      <trkpt lat="49.89241" lon="4.76212">
        <ele>279</ele>
        <time>2019-06-25T07:08:50.331Z</time>
      </trkpt>
      <trkpt lat="49.89239" lon="4.76178">
        <ele>283</ele>
        <time>2019-06-25T07:08:54.333Z</time>
      </trkpt>
      <trkpt lat="49.89217" lon="4.76138">
        <ele>275</ele>
        <time>2019-06-25T07:08:59.330Z</time>
      </trkpt>
      <trkpt lat="49.89215" lon="4.76175">
        <ele>273</ele>
        <time>2019-06-25T07:09:03.330Z</time>
      </trkpt>
      <trkpt lat="49.89211" lon="4.76225">
        <ele>269</ele>
        <time>2019-06-25T07:09:07.328Z</time>
      </trkpt>
      <trkpt lat="49.89188" lon="4.76242">
        <ele>263</ele>
        <time>2019-06-25T07:09:12.334Z</time>
      </trkpt>
      <trkpt lat="49.89188" lon="4.76305">
        <ele>270</ele>
        <time>2019-06-25T07:09:17.330Z</time>
      </trkpt>
      <trkpt lat="49.89227" lon="4.76398">
        <ele>275</ele>
        <time>2019-06-25T07:09:22.330Z</time>
      </trkpt>
      <trkpt lat="49.89257" lon="4.76426">
        <ele>276</ele>
        <time>2019-06-25T07:09:27.335Z</time>
      </trkpt>
      <trkpt lat="49.89246" lon="4.76455">
        <ele>277</ele>
        <time>2019-06-25T07:09:31.330Z</time>
      </trkpt>
      <trkpt lat="49.89251" lon="4.76458">
        <ele>277</ele>
        <time>2019-06-25T07:09:36.331Z</time>
      </trkpt>
      <trkpt lat="49.89261" lon="4.7651">
        <ele>286</ele>
        <time>2019-06-25T07:09:41.329Z</time>
      </trkpt>
      <trkpt lat="49.89295" lon="4.76594">
        <ele>287</ele>
        <time>2019-06-25T07:09:45.334Z</time>
      </trkpt>
      <trkpt lat="49.89321" lon="4.76612">
        <ele>289</ele>
        <time>2019-06-25T07:09:50.332Z</time>
      </trkpt>
      <trkpt lat="49.89336" lon="4.76703">
        <ele>298</ele>
        <time>2019-06-25T07:09:54.333Z</time>
      </trkpt>
      <trkpt lat="49.89342" lon="4.76774">
        <ele>311</ele>
        <time>2019-06-25T07:09:59.332Z</time>
      </trkpt>
      <trkpt lat="49.89358" lon="4.7684">
        <ele>317</ele>
        <time>2019-06-25T07:10:04.331Z</time>
      </trkpt>
      <trkpt lat="49.89463" lon="4.77079">
        <ele>319</ele>
        <time>2019-06-25T07:10:09.330Z</time>
      </trkpt>
      <trkpt lat="49.89512" lon="4.77103">
        <ele>319</ele>
        <time>2019-06-25T07:10:14.329Z</time>
      </trkpt>
      <trkpt lat="49.89519" lon="4.77071">
        <ele>320</ele>
        <time>2019-06-25T07:10:19.329Z</time>
      </trkpt>
      <trkpt lat="49.89519" lon="4.77071">
        <ele>320</ele>
        <time>2019-06-25T07:10:24.333Z</time>
      </trkpt>
      <trkpt lat="49.89519" lon="4.77071">
        <ele>320</ele>
        <time>2019-06-25T07:10:29.330Z</time>
      </trkpt>
      <trkpt lat="49.89519" lon="4.77072">
        <ele>320</ele>
        <time>2019-06-25T07:10:34.331Z</time>
      </trkpt>
      <trkpt lat="49.89519" lon="4.77073">
        <ele>320</ele>
        <time>2019-06-25T07:10:39.331Z</time>
      </trkpt>
      <trkpt lat="49.89519" lon="4.77073">
        <ele>320</ele>
        <time>2019-06-25T07:10:44.332Z</time>
      </trkpt>
      <trkpt lat="49.89519" lon="4.77073">
        <ele>320</ele>
        <time>2019-06-25T07:10:49.331Z</time>
      </trkpt>
      <trkpt lat="49.89519" lon="4.77073">
        <ele>320</ele>
        <time>2019-06-25T07:10:53.333Z</time>
      </trkpt>
      <trkpt lat="49.89537" lon="4.77153">
        <ele>328</ele>
        <time>2019-06-25T07:10:58.336Z</time>
      </trkpt>
      <trkpt lat="49.89529" lon="4.77208">
        <ele>333</ele>
        <time>2019-06-25T07:11:03.333Z</time>
      </trkpt>
      <trkpt lat="49.89503" lon="4.7726">
        <ele>340</ele>
        <time>2019-06-25T07:11:07.328Z</time>
      </trkpt>
      <trkpt lat="49.89462" lon="4.77281">
        <ele>344</ele>
        <time>2019-06-25T07:11:12.333Z</time>
      </trkpt>
      <trkpt lat="49.89419" lon="4.77321">
        <ele>350</ele>
        <time>2019-06-25T07:11:17.328Z</time>
      </trkpt>
      <trkpt lat="49.89414" lon="4.77411">
        <ele>363</ele>
        <time>2019-06-25T07:11:22.328Z</time>
      </trkpt>
      <trkpt lat="49.89397" lon="4.77423">
        <ele>363</ele>
        <time>2019-06-25T07:11:27.329Z</time>
      </trkpt>
      <trkpt lat="49.89382" lon="4.7743">
        <ele>363</ele>
        <time>2019-06-25T07:11:32.330Z</time>
      </trkpt>
      <trkpt lat="49.89346" lon="4.77441">
        <ele>366</ele>
        <time>2019-06-25T07:11:37.329Z</time>
      </trkpt>
      <trkpt lat="49.8932" lon="4.77436">
        <ele>366</ele>
        <time>2019-06-25T07:11:42.330Z</time>
      </trkpt>
      <trkpt lat="49.89304" lon="4.77437">
        <ele>366</ele>
        <time>2019-06-25T07:11:47.330Z</time>
      </trkpt>
      <trkpt lat="49.89294" lon="4.77438">
        <ele>366</ele>
        <time>2019-06-25T07:11:52.332Z</time>
      </trkpt>
      <trkpt lat="49.89283" lon="4.77439">
        <ele>365</ele>
        <time>2019-06-25T07:11:56.335Z</time>
      </trkpt>
      <trkpt lat="49.89283" lon="4.77445">
        <ele>365</ele>
        <time>2019-06-25T07:12:00.329Z</time>
      </trkpt>
      <trkpt lat="49.89303" lon="4.77495">
        <ele>367</ele>
        <time>2019-06-25T07:12:05.331Z</time>
      </trkpt>
      <trkpt lat="49.89308" lon="4.77509">
        <ele>367</ele>
        <time>2019-06-25T07:12:09.328Z</time>
      </trkpt>
      <trkpt lat="49.89313" lon="4.7752">
        <ele>368</ele>
        <time>2019-06-25T07:12:14.333Z</time>
      </trkpt>
      <trkpt lat="49.8933" lon="4.77555">
        <ele>372</ele>
        <time>2019-06-25T07:12:19.332Z</time>
      </trkpt>
      <trkpt lat="49.89383" lon="4.77698">
        <ele>389</ele>
        <time>2019-06-25T07:12:23.327Z</time>
      </trkpt>
      <trkpt lat="49.89383" lon="4.77701">
        <ele>389</ele>
        <time>2019-06-25T07:12:27.326Z</time>
      </trkpt>
      <trkpt lat="49.89417" lon="4.7778">
        <ele>394</ele>
        <time>2019-06-25T07:12:32.331Z</time>
      </trkpt>
      <trkpt lat="49.89446" lon="4.77973">
        <ele>407</ele>
        <time>2019-06-25T07:12:36.328Z</time>
      </trkpt>
      <trkpt lat="49.89502" lon="4.78186">
        <ele>423</ele>
        <time>2019-06-25T07:12:40.339Z</time>
      </trkpt>
      <trkpt lat="49.89488" lon="4.78184">
        <ele>423</ele>
        <time>2019-06-25T07:12:44.339Z</time>
      </trkpt>
      <trkpt lat="49.89488" lon="4.78184">
        <ele>423</ele>
        <time>2019-06-25T07:12:49.329Z</time>
      </trkpt>
      <trkpt lat="49.89488" lon="4.78184">
        <ele>423</ele>
        <time>2019-06-25T07:12:53.330Z</time>
      </trkpt>
      <trkpt lat="49.89412" lon="4.78203">
        <ele>418</ele>
        <time>2019-06-25T07:12:58.329Z</time>
      </trkpt>
      <trkpt lat="49.89392" lon="4.78214">
        <ele>418</ele>
        <time>2019-06-25T07:13:12.330Z</time>
      </trkpt>
      <trkpt lat="49.89267" lon="4.78305">
        <ele>414</ele>
        <time>2019-06-25T07:13:17.330Z</time>
      </trkpt>
      <trkpt lat="49.89174" lon="4.78409">
        <ele>418</ele>
        <time>2019-06-25T07:13:22.331Z</time>
      </trkpt>
      <trkpt lat="49.89033" lon="4.78488">
        <ele>411</ele>
        <time>2019-06-25T07:13:26.332Z</time>
      </trkpt>
      <trkpt lat="49.89033" lon="4.78492">
        <ele>411</ele>
        <time>2019-06-25T07:13:31.330Z</time>
      </trkpt>
      <trkpt lat="49.89022" lon="4.78512">
        <ele>411</ele>
        <time>2019-06-25T07:14:16.332Z</time>
      </trkpt>
      <trkpt lat="49.88957" lon="4.78505">
        <ele>402</ele>
        <time>2019-06-25T07:14:21.330Z</time>
      </trkpt>
      <trkpt lat="49.88952" lon="4.78505">
        <ele>402</ele>
        <time>2019-06-25T07:14:26.330Z</time>
      </trkpt>
      <trkpt lat="49.88951" lon="4.78502">
        <ele>402</ele>
        <time>2019-06-25T07:14:31.333Z</time>
      </trkpt>
      <trkpt lat="49.88945" lon="4.78503">
        <ele>402</ele>
        <time>2019-06-25T07:14:36.329Z</time>
      </trkpt>
      <trkpt lat="49.88824" lon="4.78519">
        <ele>393</ele>
        <time>2019-06-25T07:14:41.328Z</time>
      </trkpt>
      <trkpt lat="49.8881" lon="4.78511">
        <ele>391</ele>
        <time>2019-06-25T07:14:46.328Z</time>
      </trkpt>
      <trkpt lat="49.88803" lon="4.78498">
        <ele>391</ele>
        <time>2019-06-25T07:14:51.337Z</time>
      </trkpt>
      <trkpt lat="49.88738" lon="4.78448">
        <ele>383</ele>
        <time>2019-06-25T07:14:56.330Z</time>
      </trkpt>
      <trkpt lat="49.88689" lon="4.78461">
        <ele>379</ele>
        <time>2019-06-25T07:15:01.331Z</time>
      </trkpt>
      <trkpt lat="49.8868" lon="4.78438">
        <ele>378</ele>
        <time>2019-06-25T07:15:06.326Z</time>
      </trkpt>
      <trkpt lat="49.88685" lon="4.78436">
        <ele>379</ele>
        <time>2019-06-25T07:15:11.326Z</time>
      </trkpt>
      <trkpt lat="49.88581" lon="4.78425">
        <ele>365</ele>
        <time>2019-06-25T07:15:16.328Z</time>
      </trkpt>
      <trkpt lat="49.88579" lon="4.78422">
        <ele>365</ele>
        <time>2019-06-25T07:15:21.331Z</time>
      </trkpt>
      <trkpt lat="49.88576" lon="4.78413">
        <ele>365</ele>
        <time>2019-06-25T07:16:16.335Z</time>
      </trkpt>
      <trkpt lat="49.88567" lon="4.78415">
        <ele>362</ele>
        <time>2019-06-25T07:16:21.326Z</time>
      </trkpt>
      <trkpt lat="49.8856" lon="4.78416">
        <ele>362</ele>
        <time>2019-06-25T07:16:31.328Z</time>
      </trkpt>
      <trkpt lat="49.88554" lon="4.78413">
        <ele>362</ele>
        <time>2019-06-25T07:17:02.327Z</time>
      </trkpt>
      <trkpt lat="49.88545" lon="4.78423">
        <ele>362</ele>
        <time>2019-06-25T07:17:45.330Z</time>
      </trkpt>
      <trkpt lat="49.88554" lon="4.78417">
        <ele>362</ele>
        <time>2019-06-25T07:17:49.331Z</time>
      </trkpt>
      <trkpt lat="49.88552" lon="4.78416">
        <ele>362</ele>
        <time>2019-06-25T07:17:54.327Z</time>
      </trkpt>
      <trkpt lat="49.88552" lon="4.78417">
        <ele>362</ele>
        <time>2019-06-25T07:17:59.324Z</time>
      </trkpt>
      <trkpt lat="49.88507" lon="4.78408">
        <ele>354</ele>
        <time>2019-06-25T07:18:03.332Z</time>
      </trkpt>
      <trkpt lat="49.88501" lon="4.78413">
        <ele>354</ele>
        <time>2019-06-25T07:18:08.326Z</time>
      </trkpt>
      <trkpt lat="49.88501" lon="4.7842">
        <ele>354</ele>
        <time>2019-06-25T07:18:12.324Z</time>
      </trkpt>
      <trkpt lat="49.88483" lon="4.78415">
        <ele>349</ele>
        <time>2019-06-25T07:18:41.329Z</time>
      </trkpt>
      <trkpt lat="49.8848" lon="4.78413">
        <ele>349</ele>
        <time>2019-06-25T07:18:45.328Z</time>
      </trkpt>
      <trkpt lat="49.88466" lon="4.7842">
        <ele>349</ele>
        <time>2019-06-25T07:18:50.327Z</time>
      </trkpt>
      <trkpt lat="49.88424" lon="4.78432">
        <ele>341</ele>
        <time>2019-06-25T07:18:54.326Z</time>
      </trkpt>
      <trkpt lat="49.88419" lon="4.78435">
        <ele>341</ele>
        <time>2019-06-25T07:18:59.328Z</time>
      </trkpt>
      <trkpt lat="49.88421" lon="4.78442">
        <ele>341</ele>
        <time>2019-06-25T07:20:02.331Z</time>
      </trkpt>
      <trkpt lat="49.88408" lon="4.78436">
        <ele>341</ele>
        <time>2019-06-25T07:20:07.327Z</time>
      </trkpt>
      <trkpt lat="49.88389" lon="4.78426">
        <ele>337</ele>
        <time>2019-06-25T07:20:12.328Z</time>
      </trkpt>
      <trkpt lat="49.88377" lon="4.78443">
        <ele>337</ele>
        <time>2019-06-25T07:20:16.331Z</time>
      </trkpt>
      <trkpt lat="49.8836" lon="4.78435">
        <ele>330</ele>
        <time>2019-06-25T07:20:21.325Z</time>
      </trkpt>
      <trkpt lat="49.88311" lon="4.78455">
        <ele>317</ele>
        <time>2019-06-25T07:20:26.326Z</time>
      </trkpt>
      <trkpt lat="49.88288" lon="4.7846">
        <ele>308</ele>
        <time>2019-06-25T07:20:31.329Z</time>
      </trkpt>
      <trkpt lat="49.88278" lon="4.78465">
        <ele>308</ele>
        <time>2019-06-25T07:20:35.328Z</time>
      </trkpt>
      <trkpt lat="49.88275" lon="4.78482">
        <ele>308</ele>
        <time>2019-06-25T07:20:40.324Z</time>
      </trkpt>
      <trkpt lat="49.88245" lon="4.78486">
        <ele>306</ele>
        <time>2019-06-25T07:20:45.326Z</time>
      </trkpt>
      <trkpt lat="49.88227" lon="4.78486">
        <ele>304</ele>
        <time>2019-06-25T07:20:50.333Z</time>
      </trkpt>
      <trkpt lat="49.88228" lon="4.78495">
        <ele>304</ele>
        <time>2019-06-25T07:20:54.327Z</time>
      </trkpt>
      <trkpt lat="49.88198" lon="4.78494">
        <ele>299</ele>
        <time>2019-06-25T07:20:59.326Z</time>
      </trkpt>
      <trkpt lat="49.88193" lon="4.78496">
        <ele>299</ele>
        <time>2019-06-25T07:21:04.327Z</time>
      </trkpt>
      <trkpt lat="49.88191" lon="4.78504">
        <ele>299</ele>
        <time>2019-06-25T07:21:09.327Z</time>
      </trkpt>
      <trkpt lat="49.88219" lon="4.78517">
        <ele>303</ele>
        <time>2019-06-25T07:21:14.326Z</time>
      </trkpt>
      <trkpt lat="49.88218" lon="4.78521">
        <ele>303</ele>
        <time>2019-06-25T07:21:19.326Z</time>
      </trkpt>
      <trkpt lat="49.88193" lon="4.78516">
        <ele>299</ele>
        <time>2019-06-25T07:22:05.332Z</time>
      </trkpt>
      <trkpt lat="49.88193" lon="4.7852">
        <ele>299</ele>
        <time>2019-06-25T07:22:10.331Z</time>
      </trkpt>
      <trkpt lat="49.88153" lon="4.78538">
        <ele>295</ele>
        <time>2019-06-25T07:22:14.330Z</time>
      </trkpt>
      <trkpt lat="49.8814" lon="4.78517">
        <ele>292</ele>
        <time>2019-06-25T07:22:19.327Z</time>
      </trkpt>
      <trkpt lat="49.88144" lon="4.78515">
        <ele>292</ele>
        <time>2019-06-25T07:22:24.328Z</time>
      </trkpt>
      <trkpt lat="49.88047" lon="4.78558">
        <ele>279</ele>
        <time>2019-06-25T07:22:29.325Z</time>
      </trkpt>
      <trkpt lat="49.87939" lon="4.7875">
        <ele>263</ele>
        <time>2019-06-25T07:22:34.327Z</time>
      </trkpt>
      <trkpt lat="49.87945" lon="4.78766">
        <ele>262</ele>
        <time>2019-06-25T07:22:38.330Z</time>
      </trkpt>
      <trkpt lat="49.87892" lon="4.78898">
        <ele>245</ele>
        <time>2019-06-25T07:22:43.328Z</time>
      </trkpt>
      <trkpt lat="49.8789" lon="4.7891">
        <ele>243</ele>
        <time>2019-06-25T07:22:48.327Z</time>
      </trkpt>
      <trkpt lat="49.87852" lon="4.78984">
        <ele>238</ele>
        <time>2019-06-25T07:22:53.328Z</time>
      </trkpt>
      <trkpt lat="49.87844" lon="4.78988">
        <ele>235</ele>
        <time>2019-06-25T07:22:58.325Z</time>
      </trkpt>
      <trkpt lat="49.87843" lon="4.79">
        <ele>235</ele>
        <time>2019-06-25T07:23:25.328Z</time>
      </trkpt>
      <trkpt lat="49.87839" lon="4.79004">
        <ele>235</ele>
        <time>2019-06-25T07:23:30.329Z</time>
      </trkpt>
      <trkpt lat="49.87808" lon="4.79041">
        <ele>230</ele>
        <time>2019-06-25T07:23:34.330Z</time>
      </trkpt>
      <trkpt lat="49.8778" lon="4.79063">
        <ele>228</ele>
        <time>2019-06-25T07:23:39.327Z</time>
      </trkpt>
      <trkpt lat="49.87743" lon="4.79136">
        <ele>222</ele>
        <time>2019-06-25T07:23:43.331Z</time>
      </trkpt>
      <trkpt lat="49.8773" lon="4.79148">
        <ele>218</ele>
        <time>2019-06-25T07:23:48.327Z</time>
      </trkpt>
      <trkpt lat="49.87723" lon="4.79143">
        <ele>218</ele>
        <time>2019-06-25T07:23:53.329Z</time>
      </trkpt>
      <trkpt lat="49.87699" lon="4.79112">
        <ele>215</ele>
        <time>2019-06-25T07:23:58.326Z</time>
      </trkpt>
      <trkpt lat="49.87691" lon="4.79121">
        <ele>215</ele>
        <time>2019-06-25T07:24:03.328Z</time>
      </trkpt>
    </trkseg>
  </trk>
</gpx>